createdAt,value
2017-10-02T13:59:49.612Z,7.87
2017-10-02T14:02:25.129Z,7.63
2017-10-02T14:04:53.815Z,6.60
2017-10-02T14:07:22.364Z,7.27
2017-10-02T14:09:50.817Z,7.80
2017-10-02T14:12:19.268Z,7.70
2017-10-02T14:14:47.703Z,7.60
2017-10-02T14:17:16.229Z,9.90
2017-10-02T14:19:44.687Z,6.87
2017-10-02T14:22:13.183Z,7.23
2017-10-02T14:24:41.643Z,8.60
2017-10-02T14:27:10.027Z,7.83
2017-10-02T14:29:38.510Z,6.13
2017-10-02T14:32:06.983Z,7.30
2017-10-02T14:34:35.576Z,5.87
2017-10-02T14:37:03.989Z,9.40
2017-10-02T14:39:32.470Z,7.13
2017-10-02T14:42:00.936Z,7.07
2017-10-02T14:44:29.834Z,6.33
2017-10-02T14:46:58.231Z,6.20
2017-10-02T14:49:31.100Z,6.90
2017-10-02T14:52:06.976Z,6.50
2017-10-02T14:54:47.409Z,5.70
2017-10-02T14:57:25.827Z,8.90
2017-10-02T15:00:06.222Z,6.80
2017-10-02T15:02:51.397Z,7.70
2017-10-02T15:08:27.035Z,6.20
2017-10-02T15:10:58.921Z,6.33
2017-10-02T15:13:34.989Z,5.40
2017-10-02T15:19:11.769Z,5.20
2017-10-02T15:21:46.267Z,5.33
2017-10-02T15:24:35.928Z,6.93
2017-10-02T15:27:09.568Z,5.70
2017-10-02T15:29:47.368Z,5.20
2017-10-02T15:32:17.086Z,5.93
2017-10-02T15:34:47.464Z,7.87
2017-10-02T15:37:16.083Z,5.43
2017-10-02T15:39:44.749Z,5.47
2017-10-02T15:42:14.488Z,5.03
2017-10-02T15:44:43.109Z,5.60
2017-10-02T15:47:11.671Z,5.50
2017-10-02T15:49:41.284Z,6.40
2017-10-02T15:52:10.014Z,7.30
2017-10-02T15:54:38.509Z,5.63
2017-10-02T15:57:07.092Z,5.97
2017-10-02T15:59:35.759Z,6.20
2017-10-02T16:02:04.853Z,5.60
2017-10-02T16:04:33.142Z,6.10
2017-10-02T16:07:01.644Z,6.47
2017-10-02T16:09:30.580Z,7.10
2017-10-02T16:11:59.072Z,6.33
2017-10-02T16:14:27.544Z,8.47
2017-10-02T16:16:58.812Z,7.50
2017-10-02T16:19:27.321Z,6.13
2017-10-02T16:21:55.793Z,6.00
2017-10-02T16:24:24.208Z,6.77
2017-10-02T16:26:55.045Z,6.30
2017-10-02T16:29:23.491Z,6.20
2017-10-02T16:31:51.884Z,6.40
2017-10-02T16:34:20.281Z,6.50
2017-10-02T16:36:48.727Z,5.93
2017-10-02T16:39:23.681Z,5.80
2017-10-02T16:41:52.870Z,6.30
2017-10-02T16:44:21.331Z,7.47
2017-10-02T16:46:49.784Z,6.10
2017-10-02T16:49:18.222Z,6.27
2017-10-02T16:51:46.773Z,7.33
2017-10-02T16:54:15.183Z,6.73
2017-10-02T16:56:46.248Z,5.80
2017-10-02T16:59:14.756Z,8.70
2017-10-02T17:01:43.431Z,7.40
2017-10-02T17:04:11.884Z,6.40
2017-10-02T17:06:42.135Z,5.60
2017-10-02T17:09:10.444Z,7.07
2017-10-02T17:11:39.155Z,7.00
2017-10-02T17:14:07.515Z,6.83
2017-10-02T17:16:36.078Z,6.40
2017-10-02T17:19:11.832Z,7.33
2017-10-02T17:21:45.195Z,7.70
2017-10-02T17:24:25.468Z,9.90
2017-10-02T17:26:56.695Z,7.23
2017-10-02T17:29:25.215Z,7.00
2017-10-02T17:31:53.612Z,7.40
2017-10-02T17:34:22.013Z,6.07
2017-10-02T17:36:50.521Z,6.70
2017-10-02T17:39:20.932Z,7.47
2017-10-02T17:41:49.420Z,7.60
2017-10-02T17:44:18.668Z,10.87
2017-10-02T17:46:50.345Z,7.77
2017-10-02T17:49:22.505Z,7.57
2017-10-02T17:51:51.438Z,7.90
2017-10-02T17:54:21.011Z,9.47
2017-10-02T17:56:49.415Z,9.90
2017-10-02T17:59:17.752Z,7.77
2017-10-02T18:01:47.523Z,9.70
2017-10-02T18:04:16.643Z,10.20
2017-10-02T18:06:46.297Z,7.90
2017-10-02T18:09:14.625Z,10.30
2017-10-02T18:11:43.092Z,14.77
2017-10-02T18:14:12.315Z,9.70
2017-10-02T18:16:40.781Z,10.10
2017-10-02T18:19:09.242Z,10.47
2017-10-02T18:21:37.982Z,9.50
2017-10-02T18:24:06.308Z,10.50
2017-10-02T18:26:34.830Z,11.43
2017-10-02T18:29:03.872Z,10.80
2017-10-02T18:31:32.746Z,11.47
2017-10-02T18:34:01.259Z,9.50
2017-10-02T18:36:30.086Z,12.43
2017-10-02T18:38:58.535Z,11.17
2017-10-02T18:41:26.932Z,12.10
2017-10-02T18:44:59.048Z,11.33
2017-10-02T18:47:27.666Z,14.57
2017-10-02T18:49:56.561Z,10.50
2017-10-02T18:52:26.151Z,12.63
2017-10-02T18:54:55.305Z,10.73
2017-10-02T18:57:23.729Z,10.23
2017-10-02T18:59:52.040Z,9.70
2017-10-02T19:02:20.507Z,12.00
2017-10-02T19:04:50.270Z,9.17
2017-10-02T19:07:21.412Z,11.67
2017-10-02T19:09:49.943Z,11.33
2017-10-02T19:12:18.320Z,9.80
2017-10-02T19:14:46.660Z,13.73
2017-10-02T19:17:15.036Z,9.00
2017-10-02T19:19:43.376Z,14.90
2017-10-02T19:22:11.848Z,8.13
2017-10-02T19:27:15.148Z,9.00
2017-10-02T19:29:44.521Z,13.40
2017-10-02T19:32:14.945Z,9.80
2017-10-02T19:34:43.507Z,9.13
2017-10-02T19:37:11.900Z,7.67
2017-10-02T19:39:40.349Z,7.77
2017-10-02T19:42:08.761Z,7.97
2017-10-02T19:44:37.453Z,7.80
2017-10-02T19:47:06.015Z,8.83
2017-10-02T19:49:48.844Z,6.80
2017-10-02T19:52:17.637Z,9.00
2017-10-02T19:54:46.615Z,6.97
2017-10-02T19:57:16.420Z,6.10
2017-10-02T19:59:45.428Z,7.47
2017-10-02T20:02:14.732Z,7.03
2017-10-02T20:04:43.069Z,6.60
2017-10-02T20:07:11.421Z,6.50
2017-10-02T20:09:41.820Z,7.67
2017-10-02T20:12:10.349Z,6.60
2017-10-02T20:14:38.932Z,5.57
2017-10-02T20:17:08.092Z,7.57
2017-10-02T20:19:36.782Z,6.67
2017-10-02T20:22:05.446Z,6.27
2017-10-02T20:24:34.477Z,7.60
2017-10-02T20:27:03.047Z,9.47
2017-10-02T20:29:31.612Z,5.00
2017-10-02T20:32:02.592Z,7.03
2017-10-02T20:34:31.820Z,6.30
2017-10-02T20:37:00.283Z,5.53
2017-10-02T20:39:28.657Z,5.17
2017-10-02T20:41:57.039Z,5.40
2017-10-02T20:44:25.456Z,6.20
2017-10-02T20:46:53.975Z,5.40
2017-10-02T20:49:22.649Z,6.50
2017-10-02T20:51:51.151Z,6.23
2017-10-02T20:54:19.526Z,4.50
2017-10-02T20:56:47.900Z,6.23
2017-10-02T20:59:17.467Z,5.87
2017-10-02T21:01:45.801Z,5.40
2017-10-02T21:04:14.234Z,7.03
2017-10-02T21:06:44.535Z,4.20
2017-10-02T21:09:12.877Z,5.97
2017-10-02T21:11:41.306Z,4.00
2017-10-02T21:14:12.077Z,4.00
2017-10-02T21:16:41.859Z,4.87
2017-10-02T21:19:11.297Z,5.00
2017-10-02T21:21:39.950Z,4.70
2017-10-02T21:24:08.421Z,4.67
2017-10-02T21:26:37.031Z,5.93
2017-10-02T21:29:05.530Z,5.13
2017-10-02T21:31:34.050Z,5.40
2017-10-02T21:34:03.413Z,4.63
2017-10-02T21:36:32.071Z,6.40
2017-10-02T21:39:00.627Z,4.50
2017-10-02T21:41:29.228Z,4.70
2017-10-02T21:43:57.750Z,4.93
2017-10-02T21:46:26.212Z,7.00
2017-10-02T21:48:54.648Z,4.70
2017-10-02T21:51:23.276Z,5.17
2017-10-02T21:53:52.205Z,4.40
2017-10-02T21:56:20.715Z,5.17
2017-10-02T21:58:49.184Z,4.40
2017-10-02T22:01:17.629Z,5.70
2017-10-02T22:03:46.363Z,6.63
2017-10-02T22:06:15.286Z,5.80
2017-10-02T22:08:43.788Z,5.23
2017-10-02T22:11:12.242Z,4.50
2017-10-02T22:13:40.699Z,5.27
2017-10-02T22:16:09.162Z,4.70
2017-10-02T22:18:37.551Z,4.97
2017-10-02T22:21:06.019Z,5.70
2017-10-02T22:23:34.443Z,5.10
2017-10-02T22:26:02.885Z,4.87
2017-10-02T22:28:31.792Z,4.93
2017-10-02T22:31:00.266Z,4.80
2017-10-02T22:33:29.187Z,4.77
2017-10-02T22:35:59.257Z,6.27
2017-10-02T22:38:27.905Z,4.60
2017-10-02T22:40:56.488Z,5.30
2017-10-02T22:43:24.928Z,4.23
2017-10-02T22:45:53.368Z,5.77
2017-10-02T22:48:21.872Z,4.20
2017-10-02T22:50:56.836Z,5.50
2017-10-02T22:53:37.640Z,4.80
2017-10-02T22:56:06.281Z,5.63
2017-10-02T23:01:08.116Z,5.00
2017-10-02T23:03:36.587Z,5.20
2017-10-02T23:06:13.714Z,4.50
2017-10-02T23:08:47.644Z,5.17
2017-10-02T23:11:17.391Z,5.87
2017-10-02T23:13:45.880Z,6.60
2017-10-02T23:16:14.359Z,5.57
2017-10-02T23:19:42.083Z,5.30
2017-10-02T23:22:19.088Z,4.33
2017-10-02T23:24:55.251Z,6.00
2017-10-02T23:27:24.096Z,6.77
2017-10-02T23:29:52.627Z,4.90
2017-10-02T23:32:21.107Z,7.57
2017-10-02T23:34:49.567Z,5.93
2017-10-02T23:37:23.384Z,6.70
2017-10-02T23:39:58.405Z,5.60
2017-10-02T23:42:35.681Z,7.10
2017-10-02T23:45:04.302Z,5.97
2017-10-02T23:47:32.823Z,5.20
2017-10-02T23:50:01.220Z,5.60
2017-10-02T23:52:30.055Z,7.50
2017-10-02T23:54:58.413Z,6.10
2017-10-02T23:57:26.915Z,5.60
2017-10-02T23:59:55.409Z,6.83
